sensor_id;sensor_type;location;lat;lon;timestamp;P1;durP1;ratioP1;P2;durP2;ratioP2
25129;SDS011;13308;50.860;13.664;2022-11-15T07:37:35;9.77;;;4.63;;
25129;SDS011;13308;50.860;13.664;2022-11-15T07:40:19;9.00;;;4.82;;
25129;SDS011;13308;50.860;13.664;2022-11-15T07:43:04;8.35;;;5.40;;
25129;SDS011;13308;50.860;13.664;2022-11-15T07:45:49;7.53;;;4.82;;
25129;SDS011;13308;50.860;13.664;2022-11-15T07:48:33;9.25;;;4.90;;
25129;SDS011;13308;50.860;13.664;2022-11-15T07:51:17;7.80;;;4.93;;
25129;SDS011;13308;50.860;13.664;2022-11-15T07:54:01;6.38;;;4.88;;
25129;SDS011;13308;50.860;13.664;2022-11-15T07:56:45;7.00;;;5.20;;
25129;SDS011;13308;50.860;13.664;2022-11-15T07:59:29;10.10;;;4.75;;
25129;SDS011;13308;50.860;13.664;2022-11-15T08:02:13;9.20;;;5.10;;
25129;SDS011;13308;50.860;13.664;2022-11-15T08:04:57;6.63;;;4.38;;
25129;SDS011;13308;50.860;13.664;2022-11-15T08:07:40;8.15;;;4.20;;
25129;SDS011;13308;50.860;13.664;2022-11-15T08:10:25;6.70;;;4.22;;
25129;SDS011;13308;50.860;13.664;2022-11-15T08:13:10;9.35;;;5.00;;
25129;SDS011;13308;50.860;13.664;2022-11-15T08:16:02;5.25;;;4.65;;
25129;SDS011;13308;50.860;13.664;2022-11-15T08:18:49;5.88;;;3.78;;
25129;SDS011;13308;50.860;13.664;2022-11-15T08:21:32;4.57;;;3.95;;
25129;SDS011;13308;50.860;13.664;2022-11-15T08:24:16;6.68;;;4.32;;
25129;SDS011;13308;50.860;13.664;2022-11-15T08:27:00;6.90;;;3.58;;
25129;SDS011;13308;50.860;13.664;2022-11-15T08:29:44;4.93;;;3.72;;
25129;SDS011;13308;50.860;13.664;2022-11-15T08:32:30;7.95;;;3.88;;
25129;SDS011;13308;50.860;13.664;2022-11-15T08:35:14;4.32;;;3.90;;
25129;SDS011;13308;50.860;13.664;2022-11-15T08:37:59;6.22;;;4.18;;
25129;SDS011;13308;50.860;13.664;2022-11-15T08:40:43;3.72;;;3.38;;
25129;SDS011;13308;50.860;13.664;2022-11-15T08:43:26;3.63;;;3.10;;
25129;SDS011;13308;50.860;13.664;2022-11-15T08:46:11;3.97;;;3.33;;
25129;SDS011;13308;50.860;13.664;2022-11-15T08:48:57;3.47;;;3.03;;
25129;SDS011;13308;50.860;13.664;2022-11-15T08:51:41;3.97;;;2.55;;
25129;SDS011;13308;50.860;13.664;2022-11-15T08:54:25;3.80;;;2.42;;
25129;SDS011;13308;50.860;13.664;2022-11-15T08:57:09;2.78;;;2.35;;
25129;SDS011;13308;50.860;13.664;2022-11-15T08:59:53;3.15;;;2.45;;
25129;SDS011;13308;50.860;13.664;2022-11-15T09:02:38;2.33;;;2.05;;
25129;SDS011;13308;50.860;13.664;2022-11-15T09:05:23;2.40;;;2.20;;
25129;SDS011;13308;50.860;13.664;2022-11-15T09:08:07;2.70;;;2.50;;
25129;SDS011;13308;50.860;13.664;2022-11-15T09:10:50;3.47;;;2.33;;
25129;SDS011;13308;50.860;13.664;2022-11-15T09:13:35;6.70;;;2.97;;
25129;SDS011;13308;50.860;13.664;2022-11-15T09:16:20;2.60;;;2.40;;
25129;SDS011;13308;50.860;13.664;2022-11-15T09:19:04;2.50;;;2.30;;
25129;SDS011;13308;50.860;13.664;2022-11-15T09:21:48;3.65;;;2.50;;
25129;SDS011;13308;50.860;13.664;2022-11-15T09:24:32;2.85;;;2.40;;
25129;SDS011;13308;50.860;13.664;2022-11-15T09:27:16;3.20;;;2.55;;
25129;SDS011;13308;50.860;13.664;2022-11-15T09:30:00;3.17;;;2.70;;
25129;SDS011;13308;50.860;13.664;2022-11-15T09:32:44;3.40;;;2.80;;
25129;SDS011;13308;50.860;13.664;2022-11-15T09:35:27;6.63;;;3.97;;
25129;SDS011;13308;50.860;13.664;2022-11-15T09:38:11;7.45;;;3.22;;
25129;SDS011;13308;50.860;13.664;2022-11-15T09:44:07;5.90;;;4.82;;
25129;SDS011;13308;50.860;13.664;2022-11-15T09:49:59;12.15;;;9.10;;
25129;SDS011;13308;50.860;13.664;2022-11-15T09:52:35;9.05;;;6.38;;
25129;SDS011;13308;50.860;13.664;2022-11-15T09:55:04;15.25;;;10.98;;
25129;SDS011;13308;50.860;13.664;2022-11-15T10:05:36;3.13;;;2.10;;
25129;SDS011;13308;50.860;13.664;2022-11-15T10:10:43;5.95;;;3.35;;
25129;SDS011;13308;50.860;13.664;2022-11-15T10:13:25;6.72;;;4.72;;
25129;SDS011;13308;50.860;13.664;2022-11-15T10:15:54;3.35;;;2.63;;
25129;SDS011;13308;50.860;13.664;2022-11-15T10:18:30;2.63;;;2.30;;
25129;SDS011;13308;50.860;13.664;2022-11-15T10:21:20;4.15;;;2.70;;
25129;SDS011;13308;50.860;13.664;2022-11-15T10:23:48;5.57;;;4.22;;
25129;SDS011;13308;50.860;13.664;2022-11-15T10:26:16;4.28;;;2.60;;
25129;SDS011;13308;50.860;13.664;2022-11-15T10:28:42;2.33;;;2.03;;
25129;SDS011;13308;50.860;13.664;2022-11-15T10:31:40;54.67;;;27.38;;
25129;SDS011;13308;50.860;13.664;2022-11-15T10:37:01;3.92;;;2.25;;
25129;SDS011;13308;50.860;13.664;2022-11-15T10:39:27;5.95;;;1.80;;
25129;SDS011;13308;50.860;13.664;2022-11-15T10:41:52;7.78;;;5.80;;
25129;SDS011;13308;50.860;13.664;2022-11-15T10:49:25;25.35;;;17.27;;
25129;SDS011;13308;50.860;13.664;2022-11-15T10:51:56;3.58;;;3.22;;
25129;SDS011;13308;50.860;13.664;2022-11-15T10:54:37;11.05;;;7.65;;
25129;SDS011;13308;50.860;13.664;2022-11-15T10:57:06;5.43;;;4.65;;
25129;SDS011;13308;50.860;13.664;2022-11-15T10:59:37;9.38;;;7.30;;
25129;SDS011;13308;50.860;13.664;2022-11-15T11:02:21;6.78;;;6.07;;
25129;SDS011;13308;50.860;13.664;2022-11-15T11:04:57;8.13;;;7.40;;
25129;SDS011;13308;50.860;13.664;2022-11-15T11:07:27;10.60;;;9.50;;
25129;SDS011;13308;50.860;13.664;2022-11-15T11:09:58;10.25;;;8.68;;
25129;SDS011;13308;50.860;13.664;2022-11-15T11:12:30;10.35;;;9.10;;
25129;SDS011;13308;50.860;13.664;2022-11-15T11:14:57;8.93;;;6.53;;
25129;SDS011;13308;50.860;13.664;2022-11-15T11:17:31;11.35;;;7.03;;
25129;SDS011;13308;50.860;13.664;2022-11-15T11:20:07;1.58;;;1.45;;
25129;SDS011;13308;50.860;13.664;2022-11-15T11:25:33;7.85;;;6.63;;
25129;SDS011;13308;50.860;13.664;2022-11-15T11:33:47;2.55;;;1.92;;
25129;SDS011;13308;50.860;13.664;2022-11-15T11:36:36;1.65;;;1.40;;
25129;SDS011;13308;50.860;13.664;2022-11-15T11:39:59;10.10;;;9.20;;
25129;SDS011;13308;50.860;13.664;2022-11-15T11:42:13;1.75;;;1.60;;
25129;SDS011;13308;50.860;13.664;2022-11-15T11:47:40;1.52;;;1.35;;
25129;SDS011;13308;50.860;13.664;2022-11-15T11:50:17;3.20;;;2.80;;
25129;SDS011;13308;50.860;13.664;2022-11-15T11:52:57;3.30;;;1.40;;
25129;SDS011;13308;50.860;13.664;2022-11-15T11:55:47;1.73;;;1.40;;
25129;SDS011;13308;50.860;13.664;2022-11-15T11:58:22;2.83;;;2.53;;
25129;SDS011;13308;50.860;13.664;2022-11-15T12:01:12;2.70;;;1.80;;
25129;SDS011;13308;50.860;13.664;2022-11-15T12:03:47;1.90;;;1.60;;
25129;SDS011;13308;50.860;13.664;2022-11-15T12:12:06;13.65;;;11.40;;
25129;SDS011;13308;50.860;13.664;2022-11-15T12:14:38;2.58;;;1.95;;
25129;SDS011;13308;50.860;13.664;2022-11-15T12:17:08;2.10;;;1.90;;
25129;SDS011;13308;50.860;13.664;2022-11-15T12:19:36;4.05;;;1.63;;
25129;SDS011;13308;50.860;13.664;2022-11-15T12:30:03;2.40;;;1.75;;
25129;SDS011;13308;50.860;13.664;2022-11-15T12:32:36;3.97;;;1.88;;
25129;SDS011;13308;50.860;13.664;2022-11-15T12:35:20;1.77;;;1.60;;
25129;SDS011;13308;50.860;13.664;2022-11-15T12:37:56;2.38;;;2.08;;
25129;SDS011;13308;50.860;13.664;2022-11-15T12:40:25;3.72;;;3.42;;
25129;SDS011;13308;50.860;13.664;2022-11-15T12:43:01;1.60;;;1.50;;
25129;SDS011;13308;50.860;13.664;2022-11-15T12:45:34;3.28;;;1.80;;
25129;SDS011;13308;50.860;13.664;2022-11-15T12:56:07;2.35;;;1.42;;
25129;SDS011;13308;50.860;13.664;2022-11-15T13:01:10;1.77;;;1.55;;
25129;SDS011;13308;50.860;13.664;2022-11-15T13:06:40;2.15;;;1.23;;
25129;SDS011;13308;50.860;13.664;2022-11-15T13:11:55;2.30;;;1.52;;
25129;SDS011;13308;50.860;13.664;2022-11-15T13:17:03;1.48;;;1.23;;
25129;SDS011;13308;50.860;13.664;2022-11-15T13:19:41;1.50;;;1.20;;
25129;SDS011;13308;50.860;13.664;2022-11-15T13:22:10;2.13;;;1.50;;
25129;SDS011;13308;50.860;13.664;2022-11-15T13:24:54;2.40;;;1.30;;
25129;SDS011;13308;50.860;13.664;2022-11-15T13:27:20;2.10;;;1.73;;
25129;SDS011;13308;50.860;13.664;2022-11-15T13:29:46;2.08;;;1.70;;
25129;SDS011;13308;50.860;13.664;2022-11-15T13:32:12;1.67;;;1.45;;
25129;SDS011;13308;50.860;13.664;2022-11-15T13:34:39;4.15;;;3.20;;
25129;SDS011;13308;50.860;13.664;2022-11-15T13:39:45;2.10;;;1.83;;
25129;SDS011;13308;50.860;13.664;2022-11-15T13:42:14;3.03;;;2.47;;
25129;SDS011;13308;50.860;13.664;2022-11-15T13:44:41;3.55;;;2.83;;
25129;SDS011;13308;50.860;13.664;2022-11-15T13:47:24;2.53;;;2.33;;
25129;SDS011;13308;50.860;13.664;2022-11-15T13:49:52;2.78;;;2.13;;
25129;SDS011;13308;50.860;13.664;2022-11-15T13:52:17;2.45;;;2.25;;
25129;SDS011;13308;50.860;13.664;2022-11-15T13:54:44;2.30;;;2.10;;
25129;SDS011;13308;50.860;13.664;2022-11-15T13:57:15;2.20;;;1.85;;
25129;SDS011;13308;50.860;13.664;2022-11-15T13:59:48;3.22;;;2.10;;
25129;SDS011;13308;50.860;13.664;2022-11-15T14:02:24;1.90;;;1.60;;
25129;SDS011;13308;50.860;13.664;2022-11-15T14:04:53;2.50;;;1.60;;
25129;SDS011;13308;50.860;13.664;2022-11-15T14:07:22;2.03;;;1.52;;
25129;SDS011;13308;50.860;13.664;2022-11-15T14:09:51;3.15;;;2.10;;
25129;SDS011;13308;50.860;13.664;2022-11-15T14:12:21;2.10;;;1.80;;
25129;SDS011;13308;50.860;13.664;2022-11-15T14:14:50;4.13;;;3.00;;
25129;SDS011;13308;50.860;13.664;2022-11-15T14:17:19;6.57;;;5.30;;
25129;SDS011;13308;50.860;13.664;2022-11-15T14:19:54;6.63;;;5.57;;
25129;SDS011;13308;50.860;13.664;2022-11-15T14:22:21;7.93;;;6.18;;
25129;SDS011;13308;50.860;13.664;2022-11-15T14:27:37;13.25;;;7.65;;
25129;SDS011;13308;50.860;13.664;2022-11-15T14:30:03;10.82;;;7.55;;
25129;SDS011;13308;50.860;13.664;2022-11-15T14:32:29;11.43;;;7.65;;
25129;SDS011;13308;50.860;13.664;2022-11-15T14:35:08;11.45;;;8.70;;
25129;SDS011;13308;50.860;13.664;2022-11-15T14:37:40;10.52;;;7.25;;
25129;SDS011;13308;50.860;13.664;2022-11-15T14:40:05;9.32;;;6.10;;
25129;SDS011;13308;50.860;13.664;2022-11-15T14:42:31;4.60;;;4.10;;
25129;SDS011;13308;50.860;13.664;2022-11-15T14:44:57;3.63;;;3.33;;
25129;SDS011;13308;50.860;13.664;2022-11-15T14:47:23;6.18;;;4.00;;
25129;SDS011;13308;50.860;13.664;2022-11-15T14:49:48;4.22;;;3.50;;
25129;SDS011;13308;50.860;13.664;2022-11-15T14:54:58;6.80;;;3.67;;
25129;SDS011;13308;50.860;13.664;2022-11-15T14:57:24;3.25;;;2.88;;
25129;SDS011;13308;50.860;13.664;2022-11-15T14:59:50;3.30;;;2.80;;
25129;SDS011;13308;50.860;13.664;2022-11-15T15:02:17;4.78;;;2.33;;
25129;SDS011;13308;50.860;13.664;2022-11-15T15:04:45;2.88;;;2.58;;
25129;SDS011;13308;50.860;13.664;2022-11-15T15:07:10;4.88;;;2.75;;
25129;SDS011;13308;50.860;13.664;2022-11-15T15:09:35;12.30;;;5.05;;
25129;SDS011;13308;50.860;13.664;2022-11-15T15:12:01;18.67;;;7.82;;
25129;SDS011;13308;50.860;13.664;2022-11-15T15:14:26;7.88;;;5.18;;
25129;SDS011;13308;50.860;13.664;2022-11-15T15:16:52;10.70;;;6.13;;
25129;SDS011;13308;50.860;13.664;2022-11-15T15:19:17;11.35;;;6.68;;
25129;SDS011;13308;50.860;13.664;2022-11-15T15:21:42;22.38;;;8.85;;
25129;SDS011;13308;50.860;13.664;2022-11-15T15:24:11;8.32;;;6.05;;
25129;SDS011;13308;50.860;13.664;2022-11-15T15:26:39;8.23;;;4.88;;
25129;SDS011;13308;50.860;13.664;2022-11-15T15:29:05;6.57;;;5.30;;
25129;SDS011;13308;50.860;13.664;2022-11-15T15:31:30;6.78;;;4.90;;
25129;SDS011;13308;50.860;13.664;2022-11-15T15:33:55;11.65;;;5.47;;
25129;SDS011;13308;50.860;13.664;2022-11-15T15:36:20;6.15;;;4.90;;
25129;SDS011;13308;50.860;13.664;2022-11-15T15:38:46;5.18;;;3.88;;
25129;SDS011;13308;50.860;13.664;2022-11-15T15:41:12;5.18;;;3.97;;
25129;SDS011;13308;50.860;13.664;2022-11-15T15:43:39;5.10;;;4.03;;
25129;SDS011;13308;50.860;13.664;2022-11-15T15:46:07;5.53;;;4.47;;
25129;SDS011;13308;50.860;13.664;2022-11-15T15:48:36;7.63;;;4.88;;
25129;SDS011;13308;50.860;13.664;2022-11-15T15:51:03;6.25;;;4.63;;
25129;SDS011;13308;50.860;13.664;2022-11-15T15:53:28;7.50;;;4.13;;
25129;SDS011;13308;50.860;13.664;2022-11-15T15:55:55;8.18;;;4.20;;
25129;SDS011;13308;50.860;13.664;2022-11-15T15:58:20;6.97;;;4.30;;
25129;SDS011;13308;50.860;13.664;2022-11-15T16:00:46;5.32;;;4.22;;
25129;SDS011;13308;50.860;13.664;2022-11-15T16:03:11;5.00;;;4.07;;
25129;SDS011;13308;50.860;13.664;2022-11-15T16:05:36;11.43;;;4.05;;
25129;SDS011;13308;50.860;13.664;2022-11-15T16:08:02;5.57;;;3.97;;
25129;SDS011;13308;50.860;13.664;2022-11-15T16:10:29;5.30;;;4.40;;
25129;SDS011;13308;50.860;13.664;2022-11-15T16:12:56;11.35;;;8.82;;
25129;SDS011;13308;50.860;13.664;2022-11-15T16:15:23;6.97;;;4.50;;
25129;SDS011;13308;50.860;13.664;2022-11-15T16:17:57;8.70;;;5.63;;
25129;SDS011;13308;50.860;13.664;2022-11-15T16:20:37;7.97;;;5.07;;
25129;SDS011;13308;50.860;13.664;2022-11-15T16:23:11;12.43;;;7.03;;
25129;SDS011;13308;50.860;13.664;2022-11-15T16:25:47;10.73;;;5.75;;
25129;SDS011;13308;50.860;13.664;2022-11-15T16:28:24;9.45;;;6.13;;
25129;SDS011;13308;50.860;13.664;2022-11-15T16:33:31;13.43;;;7.45;;
25129;SDS011;13308;50.860;13.664;2022-11-15T16:35:56;19.90;;;11.55;;
25129;SDS011;13308;50.860;13.664;2022-11-15T16:38:22;66.97;;;26.45;;
25129;SDS011;13308;50.860;13.664;2022-11-15T16:40:47;65.78;;;28.63;;
25129;SDS011;13308;50.860;13.664;2022-11-15T16:43:13;61.30;;;26.15;;
25129;SDS011;13308;50.860;13.664;2022-11-15T16:45:38;38.65;;;17.05;;
25129;SDS011;13308;50.860;13.664;2022-11-15T16:48:04;27.80;;;13.43;;
25129;SDS011;13308;50.860;13.664;2022-11-15T16:50:30;22.48;;;11.43;;
25129;SDS011;13308;50.860;13.664;2022-11-15T16:52:59;20.52;;;11.75;;
25129;SDS011;13308;50.860;13.664;2022-11-15T16:55:26;12.85;;;7.47;;
25129;SDS011;13308;50.860;13.664;2022-11-15T16:57:56;26.27;;;12.23;;
25129;SDS011;13308;50.860;13.664;2022-11-15T17:00:26;26.73;;;12.80;;
25129;SDS011;13308;50.860;13.664;2022-11-15T17:02:51;46.55;;;19.75;;
25129;SDS011;13308;50.860;13.664;2022-11-15T17:05:18;18.00;;;10.35;;
25129;SDS011;13308;50.860;13.664;2022-11-15T17:07:46;14.52;;;7.50;;
25129;SDS011;13308;50.860;13.664;2022-11-15T17:10:18;9.70;;;6.50;;
25129;SDS011;13308;50.860;13.664;2022-11-15T17:12:44;8.95;;;5.28;;
25129;SDS011;13308;50.860;13.664;2022-11-15T17:15:10;8.77;;;5.47;;
25129;SDS011;13308;50.860;13.664;2022-11-15T17:17:37;19.98;;;9.82;;
25129;SDS011;13308;50.860;13.664;2022-11-15T17:20:02;8.50;;;5.35;;
25129;SDS011;13308;50.860;13.664;2022-11-15T17:22:29;9.45;;;5.55;;
25129;SDS011;13308;50.860;13.664;2022-11-15T17:24:54;9.10;;;4.93;;
25129;SDS011;13308;50.860;13.664;2022-11-15T17:27:20;11.68;;;5.78;;
25129;SDS011;13308;50.860;13.664;2022-11-15T17:29:45;7.47;;;5.45;;
25129;SDS011;13308;50.860;13.664;2022-11-15T17:32:11;6.40;;;4.88;;
25129;SDS011;13308;50.860;13.664;2022-11-15T17:34:36;10.45;;;6.05;;
25129;SDS011;13308;50.860;13.664;2022-11-15T17:37:01;9.32;;;4.95;;
25129;SDS011;13308;50.860;13.664;2022-11-15T17:39:27;8.25;;;5.10;;
25129;SDS011;13308;50.860;13.664;2022-11-15T17:41:52;9.52;;;4.10;;
25129;SDS011;13308;50.860;13.664;2022-11-15T17:44:17;6.22;;;5.20;;
25129;SDS011;13308;50.860;13.664;2022-11-15T17:46:43;8.75;;;4.85;;
25129;SDS011;13308;50.860;13.664;2022-11-15T17:49:08;5.07;;;3.90;;
25129;SDS011;13308;50.860;13.664;2022-11-15T17:51:34;5.63;;;4.38;;
25129;SDS011;13308;50.860;13.664;2022-11-15T17:53:59;6.32;;;4.07;;
25129;SDS011;13308;50.860;13.664;2022-11-15T17:56:25;6.03;;;4.55;;
25129;SDS011;13308;50.860;13.664;2022-11-15T17:58:56;7.60;;;5.63;;
25129;SDS011;13308;50.860;13.664;2022-11-15T18:01:24;15.30;;;7.43;;
25129;SDS011;13308;50.860;13.664;2022-11-15T18:03:54;16.23;;;7.68;;
25129;SDS011;13308;50.860;13.664;2022-11-15T18:06:22;17.60;;;8.30;;
25129;SDS011;13308;50.860;13.664;2022-11-15T18:08:49;23.90;;;11.73;;
25129;SDS011;13308;50.860;13.664;2022-11-15T18:11:19;26.80;;;11.60;;
25129;SDS011;13308;50.860;13.664;2022-11-15T18:13:47;21.80;;;11.52;;
25129;SDS011;13308;50.860;13.664;2022-11-15T18:16:16;38.78;;;15.05;;
25129;SDS011;13308;50.860;13.664;2022-11-15T18:18:43;15.55;;;8.27;;
25129;SDS011;13308;50.860;13.664;2022-11-15T18:21:10;18.88;;;9.32;;
25129;SDS011;13308;50.860;13.664;2022-11-15T18:23:37;15.30;;;7.82;;
25129;SDS011;13308;50.860;13.664;2022-11-15T18:26:03;8.18;;;5.90;;
25129;SDS011;13308;50.860;13.664;2022-11-15T18:28:30;4.80;;;4.30;;
25129;SDS011;13308;50.860;13.664;2022-11-15T18:30:58;5.85;;;4.43;;
25129;SDS011;13308;50.860;13.664;2022-11-15T18:33:24;6.28;;;4.63;;
25129;SDS011;13308;50.860;13.664;2022-11-15T18:35:57;6.72;;;4.45;;
25129;SDS011;13308;50.860;13.664;2022-11-15T18:38:24;6.35;;;4.18;;
